Terminal Aerodrome Forecast
Issued by NWS

Home | Current Version | Previous Version | Text Only | Print | Product List | Glossary On
Versions: 1 2 3 4 5 6 7 8 9 10 11 12 13 14 15 16 17 18 19 20 21 22 23 24 25 26 27 28 29 30 31 32 33 34 35 36 37 38 39 40 41 42 43 44 45 46 47 48 49 50
000
FTUS43 KLOT 042056 AAA
TAFGYY
TAF AMD
KGYY 042056Z 0421/0518 14008KT 1/2SM SN OVC005
      TEMPO 0421/0422 1/4SM +SN
     FM042300 18005KT 3SM -SN BR OVC005
     FM050100 24007KT 5SM -SNDZ BR OVC006
     FM050400 24010KT P6SM OVC008
     FM051500 19010KT P6SM BKN008=

USA.gov is the U.S. government's official web portal to all federal, state and local government web resources and services.